National Weather Service United States Department of Commerce
Click Here for Latest Airport Weather Warnings
 
Latest Huntsville TAF


227
FTUS44 KHUN 251720
TAFHSV
TAF
KHSV 251720Z 2518/2618 13009G16KT P6SM OVC015
TEMPO 2521/2524 5SM SHRA SCT005 OVC035
FM260200 13008KT P6SM SCT005 BKN015
FM260400 14011KT P6SM RA BKN005 OVC015
FM261200 13016KT 5SM -RA BR OVC007=

Latest Muscle Shoals TAF


214
FTUS44 KHUN 251720
TAFMSL
TAF
KMSL 251720Z 2518/2618 13008G16KT P6SM OVC015
TEMPO 2518/2522 5SM SHRA SCT005 OVC035
FM260200 14008KT P6SM SCT005 BKN015
FM260400 14008KT P6SM RA BKN005 OVC015
FM261200 15010KT 5SM RA OVC007
AMD NOT SKED=


Back to Main Huntsville Weather Forecast Office Page